createdAt,value
2022-09-07T00:00:23.908Z,12.1
2022-09-07T00:05:23.486Z,12.1
2022-09-07T00:10:23.627Z,12.0
2022-09-07T00:15:23.924Z,12.0
2022-09-07T00:20:23.490Z,11.9
2022-09-07T00:25:23.631Z,11.9
2022-09-07T00:30:23.823Z,11.8
2022-09-07T00:35:23.626Z,11.7
2022-09-07T00:40:23.468Z,11.6
2022-09-07T00:45:23.715Z,11.5
2022-09-07T00:50:23.592Z,11.5
2022-09-07T00:55:23.550Z,11.4
2022-09-07T01:00:23.441Z,11.4
2022-09-07T01:05:23.602Z,11.4
2022-09-07T01:10:23.552Z,11.3
2022-09-07T01:15:23.633Z,11.3
2022-09-07T01:20:23.435Z,11.2
2022-09-07T01:25:23.635Z,11.1
2022-09-07T01:30:23.625Z,11.0
2022-09-07T01:35:23.460Z,10.9
2022-09-07T01:40:23.467Z,10.9
2022-09-07T01:45:23.712Z,10.8
2022-09-07T01:50:23.478Z,10.8
2022-09-07T01:55:23.475Z,10.6
2022-09-07T02:00:23.557Z,10.4
2022-09-07T02:05:23.447Z,10.3
2022-09-07T02:10:23.422Z,10.2
2022-09-07T02:15:23.666Z,10.1
2022-09-07T02:20:23.422Z,9.9
2022-09-07T02:25:23.566Z,9.7
2022-09-07T02:30:23.610Z,9.5
2022-09-07T02:35:23.417Z,9.5
2022-09-07T02:40:23.352Z,9.4
2022-09-07T02:45:23.480Z,9.4
2022-09-07T02:50:24.341Z,9.2
2022-09-07T02:55:23.264Z,9.0
2022-09-07T03:00:23.265Z,8.9
2022-09-07T03:05:23.273Z,8.9
2022-09-07T03:10:23.437Z,8.9
2022-09-07T03:15:23.524Z,8.9
2022-09-07T03:20:23.247Z,8.9
2022-09-07T03:25:23.733Z,8.9
2022-09-07T03:30:23.349Z,8.9
2022-09-07T03:35:23.396Z,8.9
2022-09-07T03:40:23.461Z,8.8
2022-09-07T03:45:23.264Z,8.8
2022-09-07T03:50:23.254Z,8.7
2022-09-07T03:55:23.310Z,8.6
2022-09-07T04:00:23.233Z,8.4
2022-09-07T04:05:23.185Z,8.3
2022-09-07T04:10:23.109Z,8.2
2022-09-07T04:15:23.144Z,8.2
2022-09-07T04:20:23.179Z,8.1
2022-09-07T04:25:23.432Z,8.0
2022-09-07T04:30:23.392Z,8.0
2022-09-07T04:35:23.082Z,8.0
2022-09-07T04:40:23.504Z,8.1
2022-09-07T04:45:23.161Z,8.2
2022-09-07T04:50:23.111Z,8.3
2022-09-07T04:55:23.165Z,8.4
2022-09-07T05:00:23.253Z,8.6
2022-09-07T05:05:23.078Z,8.7
2022-09-07T05:10:23.179Z,8.8
2022-09-07T05:15:23.303Z,8.8
2022-09-07T05:20:23.063Z,8.9
2022-09-07T05:25:23.035Z,9.0
2022-09-07T05:35:23.275Z,9.1
2022-09-07T05:40:23.055Z,9.3
2022-09-07T05:45:45.869Z,9.4
2022-09-07T05:50:23.144Z,9.6
2022-09-07T05:55:29.886Z,9.7
2022-09-07T06:00:23.051Z,9.9
2022-09-07T06:05:23.237Z,10.1
2022-09-07T06:10:45.692Z,10.3
2022-09-07T06:15:23.134Z,10.4
2022-09-07T06:20:23.253Z,10.6
2022-09-07T06:25:22.899Z,10.8
2022-09-07T06:30:22.981Z,11.1
2022-09-07T06:35:23.141Z,11.4
2022-09-07T06:40:23.146Z,11.7
2022-09-07T06:45:23.127Z,12.0
2022-09-07T06:50:23.212Z,12.2
2022-09-07T06:55:23.135Z,12.4
2022-09-07T07:00:23.091Z,12.7
2022-09-07T07:05:23.333Z,12.9
2022-09-07T07:10:25.017Z,13.2
2022-09-07T07:15:22.944Z,13.5
2022-09-07T07:20:22.969Z,13.8
2022-09-07T07:25:22.936Z,14.0
2022-09-07T07:30:22.930Z,14.3
2022-09-07T07:35:23.062Z,14.6
2022-09-07T07:40:26.432Z,14.9
2022-09-07T07:50:31.254Z,15.6
2022-09-07T07:55:44.177Z,15.9
2022-09-07T08:00:37.341Z,16.2
2022-09-07T08:05:22.997Z,16.5
2022-09-07T08:10:22.817Z,16.8
2022-09-07T08:15:22.858Z,17.1
2022-09-07T08:20:23.094Z,17.3
2022-09-07T08:25:22.858Z,17.6
2022-09-07T08:30:22.793Z,17.8
2022-09-07T08:35:23.007Z,18.0
2022-09-07T08:40:22.751Z,18.3
2022-09-07T08:45:22.799Z,18.5
2022-09-07T08:50:23.018Z,18.7
2022-09-07T08:55:22.939Z,18.9
2022-09-07T09:00:22.720Z,19.1
2022-09-07T09:05:22.981Z,19.3
2022-09-07T09:10:22.837Z,19.4
2022-09-07T09:15:23.004Z,19.6
2022-09-07T09:20:22.724Z,19.8
2022-09-07T09:25:23.100Z,20.0
2022-09-07T09:30:22.759Z,20.2
2022-09-07T09:35:22.593Z,20.4
2022-09-07T09:40:22.900Z,20.7
2022-09-07T09:45:22.729Z,21.0
2022-09-07T09:55:34.446Z,21.6
2022-09-07T10:00:29.009Z,21.9
2022-09-07T10:05:22.702Z,22.1
2022-09-07T10:10:22.859Z,22.2
2022-09-07T10:15:22.679Z,22.5
2022-09-07T10:20:22.612Z,22.6
2022-09-07T10:25:22.962Z,22.9
2022-09-07T10:30:22.556Z,23.1
2022-09-07T10:35:22.624Z,23.3
2022-09-07T10:40:22.737Z,23.6
2022-09-07T10:45:22.591Z,23.6
2022-09-07T10:50:23.001Z,23.7
2022-09-07T10:55:22.661Z,23.6
2022-09-07T11:00:22.532Z,23.5
2022-09-07T11:05:22.532Z,23.5
2022-09-07T11:10:22.661Z,23.4
2022-09-07T11:15:22.533Z,23.5
2022-09-07T11:20:22.538Z,23.6
2022-09-07T11:25:30.179Z,23.8
2022-09-07T11:30:22.504Z,23.9
2022-09-07T11:35:22.621Z,24.0
2022-09-07T11:40:22.687Z,24.3
2022-09-07T11:45:22.577Z,24.3
2022-09-07T11:50:22.420Z,24.4
2022-09-07T11:55:22.676Z,24.4
2022-09-07T12:00:22.483Z,24.3
2022-09-07T12:05:22.769Z,24.1
2022-09-07T12:10:22.532Z,24.0
2022-09-07T12:15:22.618Z,24.0
2022-09-07T12:20:22.555Z,24.1
2022-09-07T12:25:23.053Z,24.2
2022-09-07T12:30:22.609Z,24.2
2022-09-07T12:35:22.870Z,24.3
2022-09-07T12:40:22.630Z,24.4
2022-09-07T12:45:22.565Z,24.4
2022-09-07T12:50:22.385Z,24.6
2022-09-07T12:55:28.432Z,24.7
2022-09-07T13:00:22.475Z,24.8
2022-09-07T13:05:22.623Z,24.9
2022-09-07T13:10:22.360Z,24.8
2022-09-07T13:15:24.028Z,24.9
2022-09-07T13:20:22.346Z,25.0
2022-09-07T13:25:22.761Z,25.1
2022-09-07T13:30:22.503Z,25.1
2022-09-07T13:35:22.530Z,25.1
2022-09-07T13:40:22.500Z,25.2
2022-09-07T13:45:22.427Z,25.2
2022-09-07T13:50:22.299Z,25.1
2022-09-07T13:55:25.686Z,25.1
2022-09-07T14:00:22.438Z,25.1
2022-09-07T14:05:22.434Z,25.0
2022-09-07T14:10:22.342Z,24.9
2022-09-07T14:15:22.528Z,24.8
2022-09-07T14:20:22.376Z,24.7
2022-09-07T14:25:22.612Z,24.6
2022-09-07T14:30:22.412Z,24.4
2022-09-07T14:35:22.335Z,24.3
2022-09-07T14:40:22.554Z,24.1
2022-09-07T14:45:22.457Z,24.0
2022-09-07T14:50:22.293Z,23.9
2022-09-07T14:55:22.586Z,23.8
2022-09-07T15:00:22.326Z,23.8
2022-09-07T15:05:22.317Z,23.8
2022-09-07T15:10:23.432Z,23.9
2022-09-07T15:15:22.293Z,23.9
2022-09-07T15:20:22.288Z,23.9
2022-09-07T15:25:22.400Z,23.9
2022-09-07T15:30:22.282Z,23.8
2022-09-07T15:35:22.269Z,23.8
2022-09-07T15:40:22.427Z,23.7
2022-09-07T15:45:22.255Z,23.5
2022-09-07T15:55:22.594Z,23.4
2022-09-07T16:00:22.297Z,23.1
2022-09-07T16:05:23.220Z,23.0
2022-09-07T16:10:22.168Z,22.9
2022-09-07T16:15:22.752Z,22.8
2022-09-07T16:20:22.336Z,22.6
2022-09-07T16:25:22.222Z,22.5
2022-09-07T16:30:22.365Z,22.4
2022-09-07T16:35:22.097Z,22.3
2022-09-07T16:40:22.271Z,22.1
2022-09-07T16:50:23.458Z,21.8
2022-09-07T16:55:22.367Z,21.6
2022-09-07T17:00:22.178Z,21.4
2022-09-07T17:05:22.093Z,21.1
2022-09-07T17:10:22.346Z,20.6
2022-09-07T17:15:22.125Z,20.1
2022-09-07T17:20:22.183Z,19.9
2022-09-07T17:25:22.310Z,19.6
2022-09-07T17:30:24.765Z,19.3
2022-09-07T17:35:22.296Z,19.1
2022-09-07T17:40:23.476Z,19.0
2022-09-07T17:45:22.009Z,18.8
2022-09-07T17:50:22.176Z,18.6
2022-09-07T17:55:22.321Z,18.4
2022-09-07T18:00:22.107Z,18.3
2022-09-07T18:05:22.099Z,18.2
2022-09-07T18:10:22.896Z,18.1
2022-09-07T18:15:22.216Z,17.9
2022-09-07T18:20:22.102Z,17.8
2022-09-07T18:25:22.379Z,17.7
2022-09-07T18:30:22.097Z,17.6
2022-09-07T18:35:22.109Z,17.5
2022-09-07T18:40:36.527Z,17.4
2022-09-07T18:45:29.272Z,17.4
2022-09-07T18:50:22.102Z,17.3
2022-09-07T18:55:23.911Z,17.2
2022-09-07T19:00:21.926Z,17.1
2022-09-07T19:05:50.636Z,16.9
2022-09-07T19:10:22.479Z,16.7
2022-09-07T19:15:22.216Z,16.5
2022-09-07T19:20:22.150Z,16.4
2022-09-07T19:25:22.056Z,16.3
2022-09-07T19:30:21.999Z,16.3
2022-09-07T19:35:22.037Z,16.2
2022-09-07T19:40:22.298Z,16.1
2022-09-07T19:45:22.102Z,16.1
2022-09-07T19:50:21.906Z,16.1
2022-09-07T19:55:21.899Z,16.1
2022-09-07T20:00:22.024Z,16.1
2022-09-07T20:05:21.802Z,16.1
2022-09-07T20:10:22.186Z,16.1
2022-09-07T20:15:22.022Z,16.1
2022-09-07T20:20:21.886Z,16.2
2022-09-07T20:25:22.379Z,16.3
2022-09-07T20:30:21.847Z,16.3
2022-09-07T20:35:22.003Z,16.5
2022-09-07T20:40:22.116Z,16.6
2022-09-07T20:45:21.725Z,16.7
2022-09-07T20:50:21.865Z,16.7
2022-09-07T20:55:22.256Z,16.8
2022-09-07T21:00:22.088Z,16.8
2022-09-07T21:05:21.771Z,16.8
2022-09-07T21:10:21.982Z,16.8
2022-09-07T21:15:21.855Z,16.8
2022-09-07T21:20:22.043Z,16.8
2022-09-07T21:25:21.696Z,16.8
2022-09-07T21:30:21.804Z,16.8
2022-09-07T21:35:22.821Z,16.7
2022-09-07T21:40:22.112Z,16.7
2022-09-07T21:45:21.706Z,16.6
2022-09-07T21:50:21.677Z,16.6
2022-09-07T21:55:21.784Z,16.6
2022-09-07T22:00:21.735Z,16.5
2022-09-07T22:05:21.806Z,16.5
2022-09-07T22:10:22.099Z,16.4
2022-09-07T22:15:21.731Z,16.3
2022-09-07T22:20:21.680Z,16.3
2022-09-07T22:25:21.931Z,16.3
2022-09-07T22:30:21.705Z,16.2
2022-09-07T22:35:21.798Z,16.1
2022-09-07T22:40:21.923Z,16.1
2022-09-07T22:45:21.691Z,16.0
2022-09-07T22:50:21.734Z,16.0
2022-09-07T22:55:21.830Z,15.9
2022-09-07T23:00:21.544Z,15.9
2022-09-07T23:05:21.611Z,15.9
2022-09-07T23:10:21.902Z,15.8
2022-09-07T23:15:21.817Z,15.8
2022-09-07T23:20:21.597Z,15.7
2022-09-07T23:25:21.553Z,15.7
2022-09-07T23:30:21.684Z,15.6
2022-09-07T23:35:21.483Z,15.5
2022-09-07T23:40:21.946Z,15.4
2022-09-07T23:45:21.772Z,15.2
2022-09-07T23:50:21.909Z,15.1
2022-09-07T23:55:21.639Z,14.9
